Westview Chinook — VG3278 — position and weather

sailwx.info

Track history (hours):
 
Tides and Currents Weather Stations Pressure Air Temp Water Temp Dewpoint Dewpoint Depression Visibility Wind Speed Wind Dir Waves Ship Positions

Westview Chinook

Last reported at 2016-Jul-30 16:33 UTC. Time now 2016-Jul-30 16:51 UTC.
Position N 49°11' W 122°55'.

Length 15 m.

Type: Tug. MMSI: 316005622.

Date/timePositionNaut miles runAvg speedWind from/ knotsBaromVisibWave heightAir tempDewpointWater temp
2016-Jul-30 16:33N 49°11' W 122°55'0 0.0
2016-Jul-30 15:33N 49°11' W 122°55'0 0.0
2016-Jul-30 14:08N 49°11' W 122°55'1 2.2
2016-Jul-30 13:33N 49°13' W 122°54'5 4.6
2016-Jul-30 12:24N 49°14' W 122°46'0 0.0
2016-Jul-30 11:29N 49°14' W 122°46'0 0.0
2016-Jul-30 10:27N 49°14' W 122°46'2 2.3
2016-Jul-30 09:33N 49°13' W 122°49'4 4.4
2016-Jul-30 08:33N 49°11' W 122°55'4 3.9
2016-Jul-30 07:33N 49°13' W 122°50'0 0.1
2016-Jul-30 06:33N 49°13' W 122°50'0 0.0
2016-Jul-30 05:33N 49°13' W 122°50'1 0.9
2016-Jul-30 04:33N 49°13' W 122°51'3 2.8
2016-Jul-30 03:33N 49°11' W 122°55'0 0.0
2016-Jul-30 02:33N 49°11' W 122°55'2 1.7
2016-Jul-30 01:33N 49°13' W 122°53'2 2.3
2016-Jul-30 00:34N 49°13' W 122°50'0 0.2
2016-Jul-29 23:33N 49°13' W 122°50'3 3.5
2016-Jul-29 22:33N 49°11' W 122°55'0 0.0
2016-Jul-29 21:33N 49°11' W 122°55'0 0.3
2016-Jul-29 20:33N 49°12' W 122°55'4 3.5
2016-Jul-29 19:33N 49°13' W 122°50'0 0.0
2016-Jul-29 18:33N 49°13' W 122°50'0 0.0
2016-Jul-29 17:33N 49°13' W 122°50'0 0.0
2016-Jul-29 16:28N 49°13' W 122°50'2 2.6
2016-Jul-29 15:32N 49°13' W 122°53'1 0.7
2016-Jul-29 13:34N 49°12' W 122°55'6 6.3
2016-Jul-29 12:33N 49°14' W 122°46'0 0.0
2016-Jul-29 11:20N 49°14' W 122°46'0 0.0
2016-Jul-29 10:31N 49°14' W 122°46'0 0.0
2016-Jul-29 09:15N 49°14' W 122°46'1 1.3
2016-Jul-29 08:31N 49°13' W 122°47'4 4.2
2016-Jul-29 07:33N 49°13' W 122°53'1 1.5
2016-Jul-29 06:33N 49°13' W 122°51'1 0.8
2016-Jul-29 05:33N 49°13' W 122°50'3 2.8
2016-Jul-29 04:33N 49°12' W 122°54'1 1.3
2016-Jul-29 03:33N 49°11' W 122°55'0 0.0
2016-Jul-29 02:33N 49°11' W 122°55'0 0.0
2016-Jul-29 01:33N 49°11' W 122°55'0 0.0
2016-Jul-29 00:33N 49°11' W 122°55'0 0.0
2016-Jul-28 23:33N 49°11' W 122°55'0 0.1
2016-Jul-28 21:20N 49°11' W 122°55'4 4.9
2016-Jul-28 20:32N 49°13' W 122°50'0 0.1
2016-Jul-28 19:23N 49°13' W 122°50'2 2.5
2016-Jul-28 18:33N 49°13' W 122°53'2 0.6
2016-Jul-28 14:16N 49°11' W 122°55'5 5.8
2016-Jul-28 13:29N 49°09' W 123°02'6 6.0
2016-Jul-28 12:30N 49°07' W 123°10'1 1.0
2016-Jul-28 11:30N 49°07' W 123°11'9 8.1
2016-Jul-28 10:21N 49°09' W 122°58'2 1.1
2016-Jul-28 08:20N 49°11' W 122°55'2 3.1
2016-Jul-28 07:33N 49°13' W 122°53'3 2.6
2016-Jul-28 06:34N 49°13' W 122°49'4 4.1
2016-Jul-28 05:33N 49°11' W 122°43'0 0.2
2016-Jul-28 04:33N 49°11' W 122°43'4 3.4
2016-Jul-28 03:29N 49°15' W 122°44'1 0.6
2016-Jul-28 02:32N 49°14' W 122°45'3 3.2
2016-Jul-28 01:33N 49°13' W 122°49'5 4.6
2016-Jul-28 00:30N 49°11' W 122°55'0 0.4
2016-Jul-27 23:25N 49°10' W 122°55'0 0.4
2016-Jul-27 22:33N 49°11' W 122°55'2 1.9
2016-Jul-27 21:33N 49°09' W 122°58'6 5.9
2016-Jul-27 20:33N 49°13' W 122°50'2 2.1
2016-Jul-27 19:33N 49°13' W 122°53'4 4.5
2016-Jul-27 18:34N 49°11' W 123°00'1 0.6
2016-Jul-27 17:33N 49°12' W 123°01'4 3.9
2016-Jul-27 16:34N 49°11' W 122°55'0 0.0
2016-Jul-27 15:33N 49°11' W 122°55'3 2.9
2016-Jul-27 14:33N 49°13' W 122°51'1 1.0
2016-Jul-27 13:33N 49°13' W 122°50'0 0.0
2016-Jul-27 07:33N 49°13' W 122°50'5 5.2
2016-Jul-27 06:33N 49°10' W 122°56'4 3.8
2016-Jul-27 05:33N 49°09' W 123°02'5 5.5
2016-Jul-27 04:33N 49°07' W 123°09'5 5.1
2016-Jul-27 03:33N 49°07' W 123°17'5 5.1
2016-Jul-27 02:33N 49°07' W 123°25'6 6.0
2016-Jul-27 01:33N 49°09' W 123°33'7 6.8
2016-Jul-27 00:33N 49°12' W 123°43'6 6.4
2016-Jul-26 23:33N 49°12' W 123°53'3 2.6
2016-Jul-26 22:32N 49°09' W 123°53'0 0.0
2016-Jul-26 21:33N 49°09' W 123°53'7 6.6
2016-Jul-26 20:33N 49°14' W 123°46'9 9.2
2016-Jul-26 19:33N 49°16' W 123°32'9 9.3
2016-Jul-26 18:33N 49°16' W 123°18'4 3.6
2016-Jul-26 17:33N 49°14' W 123°13'4 4.2
2016-Jul-26 16:33N 49°12' W 123°07'2 1.9
2016-Jul-26 15:33N 49°12' W 123°04'0 0.0
2016-Jul-26 14:33N 49°12' W 123°04'2 1.7
2016-Jul-26 13:33N 49°12' W 123°07'1 0.8
2016-Jul-26 12:33N 49°12' W 123°08'4 3.7
2016-Jul-26 11:33N 49°14' W 123°13'6 5.6
2016-Jul-26 10:33N 49°12' W 123°05'1 1.2
2016-Jul-26 09:33N 49°12' W 123°03'2 2.1
2016-Jul-26 08:33N 49°12' W 123°06'3 2.7
2016-Jul-26 07:33N 49°12' W 123°02'1 0.6
2016-Jul-26 06:32N 49°12' W 123°03'5 5.1
2016-Jul-26 05:33N 49°13' W 123°11'8 7.7
2016-Jul-26 04:33N 49°17' W 123°20'4 4.0
2016-Jul-26 03:33N 49°15' W 123°15'0 0.0
2016-Jul-26 02:34N 49°15' W 123°15'6 5.6
2016-Jul-26 01:33N 49°12' W 123°08'0 0.4
2016-Jul-26 00:33N 49°12' W 123°08'9 8.4
2016-Jul-25 23:27N 49°13' W 122°54'1 1.5
2016-Jul-25 22:33N 49°12' W 122°55'3 3.1
2016-Jul-25 21:33N 49°10' W 122°58'3 3.3
2016-Jul-25 20:33N 49°12' W 122°55'7 7.3
2016-Jul-25 19:33N 49°12' W 122°43'2 2.4
2016-Jul-25 18:33N 49°13' W 122°47'1 0.3
2016-Jul-25 16:31N 49°13' W 122°47'3 3.6
2016-Jul-25 15:33N 49°13' W 122°53'3 2.9
2016-Jul-25 14:33N 49°13' W 122°48'2 1.5
2016-Jul-25 13:33N 49°14' W 122°46'0 0.0
2016-Jul-25 12:08N 49°14' W 122°46'0 0.0
2016-Jul-25 11:27N 49°14' W 122°46'0 0.0
2016-Jul-25 10:25N 49°14' W 122°46'0 0.0
2016-Jul-25 09:32N 49°14' W 122°46'0 0.0
2016-Jul-25 08:32N 49°14' W 122°46'0 0.0
2016-Jul-25 07:33N 49°14' W 122°46'0 0.0
2016-Jul-25 06:30N 49°14' W 122°46'0 0.0
2016-Jul-25 05:32N 49°14' W 122°46'0 0.0
2016-Jul-25 04:33N 49°14' W 122°46'0 0.0
2016-Jul-25 03:33N 49°14' W 122°46'0 0.0
2016-Jul-25 02:33N 49°14' W 122°46'0 0.0
2016-Jul-25 01:32N 49°14' W 122°46'0 0.0
2016-Jul-25 00:30N 49°14' W 122°46'0 0.0
2016-Jul-24 23:33N 49°14' W 122°46'0 0.0
2016-Jul-24 22:32N 49°14' W 122°46'0 0.0
2016-Jul-24 21:33N 49°14' W 122°46'0 0.0
2016-Jul-24 20:34N 49°14' W 122°46'0 0.0
2016-Jul-24 19:33N 49°14' W 122°46'0 0.0
2016-Jul-24 18:32N 49°14' W 122°46'0 0.0
2016-Jul-24 17:33N 49°14' W 122°46'2 1.9
2016-Jul-24 16:33N 49°13' W 122°48'7 7.5
2016-Jul-24 15:33N 49°10' W 122°58'8 8.3
2016-Jul-24 14:33N 49°07' W 123°10'8 7.8
2016-Jul-24 13:33N 49°06' W 123°22'10 9.6
2016-Jul-24 12:33N 49°09' W 123°36'10 9.6
2016-Jul-24 11:33N 49°12' W 123°50'3 2.7
2016-Jul-24 10:33N 49°10' W 123°53'6 6.5
2016-Jul-24 09:33N 49°13' W 123°44'8 7.9
2016-Jul-24 08:33N 49°09' W 123°33'8 7.9
2016-Jul-24 07:33N 49°06' W 123°22'8 8.3
2016-Jul-24 06:33N 49°07' W 123°09'5 5.4
2016-Jul-24 05:33N 49°09' W 123°02'4 3.6
2016-Jul-24 04:33N 49°11' W 122°58'2 1.7
2016-Jul-24 03:33N 49°11' W 122°55'0 0.0
2016-Jul-24 02:33N 49°11' W 122°55'3 2.6
2016-Jul-24 01:33N 49°13' W 122°53'4 4.3
2016-Jul-24 00:33N 49°14' W 122°46'0 0.0
2016-Jul-23 23:32N 49°14' W 122°46'0 0.0
2016-Jul-23 22:33N 49°14' W 122°46'0 0.0
2016-Jul-23 21:33N 49°14' W 122°46'0 0.0
2016-Jul-23 20:33N 49°14' W 122°46'0 0.0
2016-Jul-23 19:33N 49°14' W 122°46'0 0.0
2016-Jul-23 18:33N 49°14' W 122°46'0 0.0
2016-Jul-23 17:33N 49°14' W 122°46'0 0.0
2016-Jul-23 16:33N 49°14' W 122°46'2 2.2
2016-Jul-23 15:33N 49°13' W 122°49'7 7.0
2016-Jul-23 14:33N 49°10' W 122°58'6 4.3
2016-Jul-23 13:03N 49°07' W 123°07'2 4.6
2016-Jul-23 12:33N 49°07' W 123°10'4 4.0
2016-Jul-23 11:33N 49°07' W 123°17'4 4.0
2016-Jul-23 10:33N 49°06' W 123°23'6 6.3
2016-Jul-23 09:33N 49°08' W 123°32'7 6.8
2016-Jul-23 08:33N 49°11' W 123°42'7 6.7
2016-Jul-23 07:33N 49°12' W 123°52'2 1.9
2016-Jul-23 06:33N 49°11' W 123°53'16 8.1
2016-Jul-23 04:33N 49°09' W 123°28'9 9.0
2016-Jul-23 03:33N 49°08' W 123°15'8 7.9
2016-Jul-23 02:33N 49°09' W 123°03'9 9.1
2016-Jul-23 01:33N 49°13' W 122°51'3 3.3
2016-Jul-23 00:32N 49°14' W 122°46'0 0.0
2016-Jul-22 23:28N 49°14' W 122°46'1 1.1
2016-Jul-22 22:33N 49°13' W 122°47'2 1.6
2016-Jul-22 21:29N 49°13' W 122°50'0 0.0
2016-Jul-22 20:33N 49°13' W 122°50'0 0.0
2016-Jul-22 19:33N 49°13' W 122°50'0 0.0
2016-Jul-22 18:33N 49°13' W 122°50'2 1.8
2016-Jul-22 17:33N 49°13' W 122°53'5 5.1
2016-Jul-22 16:33N 49°11' W 123°00'2 2.0
2016-Jul-22 15:33N 49°12' W 123°03'0 0.0
2016-Jul-22 14:33N 49°12' W 123°03'0 0.0
2016-Jul-22 13:33N 49°12' W 123°03'0 0.0
2016-Jul-22 12:33N 49°12' W 123°03'0 0.0
2016-Jul-22 11:33N 49°12' W 123°03'0 0.0
2016-Jul-22 10:33N 49°12' W 123°03'0 0.0
2016-Jul-22 09:33N 49°12' W 123°03'0 0.0
2016-Jul-22 08:33N 49°12' W 123°03'1 1.0
2016-Jul-22 07:33N 49°12' W 123°04'7 3.5
2016-Jul-22 05:33N 49°14' W 123°15'5 5.2
2016-Jul-22 04:33N 49°12' W 123°07'7 7.3
2016-Jul-22 03:33N 49°12' W 122°56'1 1.0
2016-Jul-22 02:33N 49°11' W 122°57'5 5.4
2016-Jul-22 01:33N 49°13' W 122°50'2 2.4
2016-Jul-22 00:33N 49°14' W 122°46'0 0.0
2016-Jul-21 23:33N 49°14' W 122°46'2 1.9
2016-Jul-21 22:33N 49°13' W 122°49'1 0.5
2016-Jul-21 21:33N 49°13' W 122°49'0 0.0
2016-Jul-21 20:33N 49°13' W 122°49'0 0.5
2016-Jul-21 19:33N 49°13' W 122°50'0 0.4
2016-Jul-21 18:31N 49°13' W 122°49'0 0.2
2016-Jul-21 17:29N 49°13' W 122°50'3 2.3
2016-Jul-21 16:24N 49°14' W 122°46'4 5.2
2016-Jul-21 15:33N 49°13' W 122°53'13 4.1
2016-Jul-21 12:19N 49°13' W 123°13'7 8.6
2016-Jul-21 11:33N 49°15' W 123°23'10 9.5
2016-Jul-21 10:33N 49°14' W 123°37'10 9.5
2016-Jul-21 09:31N 49°12' W 123°52'3 3.3
2016-Jul-21 08:32N 49°09' W 123°53'6 5.7
2016-Jul-21 07:29N 49°13' W 123°45'8 8.0
2016-Jul-21 06:25N 49°10' W 123°33'8 8.3
2016-Jul-21 05:26N 49°07' W 123°22'13 7.0
2016-Jul-21 03:33N 49°09' W 123°02'7 6.6
2016-Jul-21 02:33N 49°13' W 122°54'4 3.7
2016-Jul-21 01:34N 49°13' W 122°48'1 1.3
2016-Jul-21 00:33N 49°13' W 122°50'3 3.5
2016-Jul-20 23:34N 49°12' W 122°55'3 2.9
2016-Jul-20 22:33N 49°09' W 122°58'5 4.9
2016-Jul-20 21:33N 49°07' W 123°05'4 4.3
2016-Jul-20 20:33N 49°07' W 123°11'4 3.8
2016-Jul-20 19:33N 49°07' W 123°17'3 3.1
2016-Jul-20 18:33N 49°05' W 123°21'5 5.1
2016-Jul-20 17:33N 49°03' W 123°28'  
Track history (hours):
 
Tides and Currents Weather Stations Pressure Air Temp Water Temp Dewpoint Dewpoint Depression Visibility Wind Speed Wind Dir Waves Ship Positions

Westview Chinook

Last reported at 2016-Jul-30 16:33 UTC. Time now 2016-Jul-30 16:51 UTC.
Position N 49°11' W 122°55'.

Length 15 m.

Type: Tug. MMSI: 316005622.

Date/timePositionNaut miles runAvg speedWind from/ knotsBaromVisibWave heightAir tempDewpointWater temp
2016-Jul-30 16:33N 49°11' W 122°55'0 0.0
2016-Jul-30 15:33N 49°11' W 122°55'0 0.0
2016-Jul-30 14:08N 49°11' W 122°55'1 2.2
2016-Jul-30 13:33N 49°13' W 122°54'5 4.6
2016-Jul-30 12:24N 49°14' W 122°46'0 0.0
2016-Jul-30 11:29N 49°14' W 122°46'0 0.0
2016-Jul-30 10:27N 49°14' W 122°46'2 2.3
2016-Jul-30 09:33N 49°13' W 122°49'4 4.4
2016-Jul-30 08:33N 49°11' W 122°55'4 3.9
2016-Jul-30 07:33N 49°13' W 122°50'0 0.1
2016-Jul-30 06:33N 49°13' W 122°50'0 0.0
2016-Jul-30 05:33N 49°13' W 122°50'1 0.9
2016-Jul-30 04:33N 49°13' W 122°51'3 2.8
2016-Jul-30 03:33N 49°11' W 122°55'0 0.0
2016-Jul-30 02:33N 49°11' W 122°55'2 1.7
2016-Jul-30 01:33N 49°13' W 122°53'2 2.3
2016-Jul-30 00:34N 49°13' W 122°50'0 0.2
2016-Jul-29 23:33N 49°13' W 122°50'3 3.5
2016-Jul-29 22:33N 49°11' W 122°55'0 0.0
2016-Jul-29 21:33N 49°11' W 122°55'0 0.3
2016-Jul-29 20:33N 49°12' W 122°55'4 3.5
2016-Jul-29 19:33N 49°13' W 122°50'0 0.0
2016-Jul-29 18:33N 49°13' W 122°50'0 0.0
2016-Jul-29 17:33N 49°13' W 122°50'0 0.0
2016-Jul-29 16:28N 49°13' W 122°50'2 2.6
2016-Jul-29 15:32N 49°13' W 122°53'1 0.7
2016-Jul-29 13:34N 49°12' W 122°55'6 6.3
2016-Jul-29 12:33N 49°14' W 122°46'0 0.0
2016-Jul-29 11:20N 49°14' W 122°46'0 0.0
2016-Jul-29 10:31N 49°14' W 122°46'0 0.0
2016-Jul-29 09:15N 49°14' W 122°46'1 1.3
2016-Jul-29 08:31N 49°13' W 122°47'4 4.2
2016-Jul-29 07:33N 49°13' W 122°53'1 1.5
2016-Jul-29 06:33N 49°13' W 122°51'1 0.8
2016-Jul-29 05:33N 49°13' W 122°50'3 2.8
2016-Jul-29 04:33N 49°12' W 122°54'1 1.3
2016-Jul-29 03:33N 49°11' W 122°55'0 0.0
2016-Jul-29 02:33N 49°11' W 122°55'0 0.0
2016-Jul-29 01:33N 49°11' W 122°55'0 0.0
2016-Jul-29 00:33N 49°11' W 122°55'0 0.0
2016-Jul-28 23:33N 49°11' W 122°55'0 0.1
2016-Jul-28 21:20N 49°11' W 122°55'4 4.9
2016-Jul-28 20:32N 49°13' W 122°50'0 0.1
2016-Jul-28 19:23N 49°13' W 122°50'2 2.5
2016-Jul-28 18:33N 49°13' W 122°53'2 0.6
2016-Jul-28 14:16N 49°11' W 122°55'5 5.8
2016-Jul-28 13:29N 49°09' W 123°02'6 6.0
2016-Jul-28 12:30N 49°07' W 123°10'1 1.0
2016-Jul-28 11:30N 49°07' W 123°11'9 8.1
2016-Jul-28 10:21N 49°09' W 122°58'2 1.1
2016-Jul-28 08:20N 49°11' W 122°55'2 3.1
2016-Jul-28 07:33N 49°13' W 122°53'3 2.6
2016-Jul-28 06:34N 49°13' W 122°49'4 4.1
2016-Jul-28 05:33N 49°11' W 122°43'0 0.2
2016-Jul-28 04:33N 49°11' W 122°43'4 3.4
2016-Jul-28 03:29N 49°15' W 122°44'1 0.6
2016-Jul-28 02:32N 49°14' W 122°45'3 3.2
2016-Jul-28 01:33N 49°13' W 122°49'5 4.6
2016-Jul-28 00:30N 49°11' W 122°55'0 0.4
2016-Jul-27 23:25N 49°10' W 122°55'0 0.4
2016-Jul-27 22:33N 49°11' W 122°55'2 1.9
2016-Jul-27 21:33N 49°09' W 122°58'6 5.9
2016-Jul-27 20:33N 49°13' W 122°50'2 2.1
2016-Jul-27 19:33N 49°13' W 122°53'4 4.5
2016-Jul-27 18:34N 49°11' W 123°00'1 0.6
2016-Jul-27 17:33N 49°12' W 123°01'4 3.9
2016-Jul-27 16:34N 49°11' W 122°55'0 0.0
2016-Jul-27 15:33N 49°11' W 122°55'3 2.9
2016-Jul-27 14:33N 49°13' W 122°51'1 1.0
2016-Jul-27 13:33N 49°13' W 122°50'0 0.0
2016-Jul-27 07:33N 49°13' W 122°50'5 5.2
2016-Jul-27 06:33N 49°10' W 122°56'4 3.8
2016-Jul-27 05:33N 49°09' W 123°02'5 5.5
2016-Jul-27 04:33N 49°07' W 123°09'5 5.1
2016-Jul-27 03:33N 49°07' W 123°17'5 5.1
2016-Jul-27 02:33N 49°07' W 123°25'6 6.0
2016-Jul-27 01:33N 49°09' W 123°33'7 6.8
2016-Jul-27 00:33N 49°12' W 123°43'6 6.4
2016-Jul-26 23:33N 49°12' W 123°53'3 2.6
2016-Jul-26 22:32N 49°09' W 123°53'0 0.0
2016-Jul-26 21:33N 49°09' W 123°53'7 6.6
2016-Jul-26 20:33N 49°14' W 123°46'9 9.2
2016-Jul-26 19:33N 49°16' W 123°32'9 9.3
2016-Jul-26 18:33N 49°16' W 123°18'4 3.6
2016-Jul-26 17:33N 49°14' W 123°13'4 4.2
2016-Jul-26 16:33N 49°12' W 123°07'2 1.9
2016-Jul-26 15:33N 49°12' W 123°04'0 0.0
2016-Jul-26 14:33N 49°12' W 123°04'2 1.7
2016-Jul-26 13:33N 49°12' W 123°07'1 0.8
2016-Jul-26 12:33N 49°12' W 123°08'4 3.7
2016-Jul-26 11:33N 49°14' W 123°13'6 5.6
2016-Jul-26 10:33N 49°12' W 123°05'1 1.2
2016-Jul-26 09:33N 49°12' W 123°03'2 2.1
2016-Jul-26 08:33N 49°12' W 123°06'3 2.7
2016-Jul-26 07:33N 49°12' W 123°02'1 0.6
2016-Jul-26 06:32N 49°12' W 123°03'5 5.1
2016-Jul-26 05:33N 49°13' W 123°11'8 7.7
2016-Jul-26 04:33N 49°17' W 123°20'4 4.0
2016-Jul-26 03:33N 49°15' W 123°15'0 0.0
2016-Jul-26 02:34N 49°15' W 123°15'6 5.6
2016-Jul-26 01:33N 49°12' W 123°08'0 0.4
2016-Jul-26 00:33N 49°12' W 123°08'9 8.4
2016-Jul-25 23:27N 49°13' W 122°54'1 1.5
2016-Jul-25 22:33N 49°12' W 122°55'3 3.1
2016-Jul-25 21:33N 49°10' W 122°58'3 3.3
2016-Jul-25 20:33N 49°12' W 122°55'7 7.3
2016-Jul-25 19:33N 49°12' W 122°43'2 2.4
2016-Jul-25 18:33N 49°13' W 122°47'1 0.3
2016-Jul-25 16:31N 49°13' W 122°47'3 3.6
2016-Jul-25 15:33N 49°13' W 122°53'3 2.9
2016-Jul-25 14:33N 49°13' W 122°48'2 1.5
2016-Jul-25 13:33N 49°14' W 122°46'0 0.0
2016-Jul-25 12:08N 49°14' W 122°46'0 0.0
2016-Jul-25 11:27N 49°14' W 122°46'0 0.0
2016-Jul-25 10:25N 49°14' W 122°46'0 0.0
2016-Jul-25 09:32N 49°14' W 122°46'0 0.0
2016-Jul-25 08:32N 49°14' W 122°46'0 0.0
2016-Jul-25 07:33N 49°14' W 122°46'0 0.0
2016-Jul-25 06:30N 49°14' W 122°46'0 0.0
2016-Jul-25 05:32N 49°14' W 122°46'0 0.0
2016-Jul-25 04:33N 49°14' W 122°46'0 0.0
2016-Jul-25 03:33N 49°14' W 122°46'0 0.0
2016-Jul-25 02:33N 49°14' W 122°46'0 0.0
2016-Jul-25 01:32N 49°14' W 122°46'0 0.0
2016-Jul-25 00:30N 49°14' W 122°46'0 0.0
2016-Jul-24 23:33N 49°14' W 122°46'0 0.0
2016-Jul-24 22:32N 49°14' W 122°46'0 0.0
2016-Jul-24 21:33N 49°14' W 122°46'0 0.0
2016-Jul-24 20:34N 49°14' W 122°46'0 0.0
2016-Jul-24 19:33N 49°14' W 122°46'0 0.0
2016-Jul-24 18:32N 49°14' W 122°46'0 0.0
2016-Jul-24 17:33N 49°14' W 122°46'2 1.9
2016-Jul-24 16:33N 49°13' W 122°48'7 7.5
2016-Jul-24 15:33N 49°10' W 122°58'8 8.3
2016-Jul-24 14:33N 49°07' W 123°10'8 7.8
2016-Jul-24 13:33N 49°06' W 123°22'10 9.6
2016-Jul-24 12:33N 49°09' W 123°36'10 9.6
2016-Jul-24 11:33N 49°12' W 123°50'3 2.7
2016-Jul-24 10:33N 49°10' W 123°53'6 6.5
2016-Jul-24 09:33N 49°13' W 123°44'8 7.9
2016-Jul-24 08:33N 49°09' W 123°33'8 7.9
2016-Jul-24 07:33N 49°06' W 123°22'8 8.3
2016-Jul-24 06:33N 49°07' W 123°09'5 5.4
2016-Jul-24 05:33N 49°09' W 123°02'4 3.6
2016-Jul-24 04:33N 49°11' W 122°58'2 1.7
2016-Jul-24 03:33N 49°11' W 122°55'0 0.0
2016-Jul-24 02:33N 49°11' W 122°55'3 2.6
2016-Jul-24 01:33N 49°13' W 122°53'4 4.3
2016-Jul-24 00:33N 49°14' W 122°46'0 0.0
2016-Jul-23 23:32N 49°14' W 122°46'0 0.0
2016-Jul-23 22:33N 49°14' W 122°46'0 0.0
2016-Jul-23 21:33N 49°14' W 122°46'0 0.0
2016-Jul-23 20:33N 49°14' W 122°46'0 0.0
2016-Jul-23 19:33N 49°14' W 122°46'0 0.0
2016-Jul-23 18:33N 49°14' W 122°46'0 0.0
2016-Jul-23 17:33N 49°14' W 122°46'0 0.0
2016-Jul-23 16:33N 49°14' W 122°46'2 2.2
2016-Jul-23 15:33N 49°13' W 122°49'7 7.0
2016-Jul-23 14:33N 49°10' W 122°58'6 4.3
2016-Jul-23 13:03N 49°07' W 123°07'2 4.6
2016-Jul-23 12:33N 49°07' W 123°10'4 4.0
2016-Jul-23 11:33N 49°07' W 123°17'4 4.0
2016-Jul-23 10:33N 49°06' W 123°23'6 6.3
2016-Jul-23 09:33N 49°08' W 123°32'7 6.8
2016-Jul-23 08:33N 49°11' W 123°42'7 6.7
2016-Jul-23 07:33N 49°12' W 123°52'2 1.9
2016-Jul-23 06:33N 49°11' W 123°53'16 8.1
2016-Jul-23 04:33N 49°09' W 123°28'9 9.0
2016-Jul-23 03:33N 49°08' W 123°15'8 7.9
2016-Jul-23 02:33N 49°09' W 123°03'9 9.1
2016-Jul-23 01:33N 49°13' W 122°51'3 3.3
2016-Jul-23 00:32N 49°14' W 122°46'0 0.0
2016-Jul-22 23:28N 49°14' W 122°46'1 1.1
2016-Jul-22 22:33N 49°13' W 122°47'2 1.6
2016-Jul-22 21:29N 49°13' W 122°50'0 0.0
2016-Jul-22 20:33N 49°13' W 122°50'0 0.0
2016-Jul-22 19:33N 49°13' W 122°50'0 0.0
2016-Jul-22 18:33N 49°13' W 122°50'2 1.8
2016-Jul-22 17:33N 49°13' W 122°53'5 5.1
2016-Jul-22 16:33N 49°11' W 123°00'2 2.0
2016-Jul-22 15:33N 49°12' W 123°03'0 0.0
2016-Jul-22 14:33N 49°12' W 123°03'0 0.0
2016-Jul-22 13:33N 49°12' W 123°03'0 0.0
2016-Jul-22 12:33N 49°12' W 123°03'0 0.0
2016-Jul-22 11:33N 49°12' W 123°03'0 0.0
2016-Jul-22 10:33N 49°12' W 123°03'0 0.0
2016-Jul-22 09:33N 49°12' W 123°03'0 0.0
2016-Jul-22 08:33N 49°12' W 123°03'1 1.0
2016-Jul-22 07:33N 49°12' W 123°04'7 3.5
2016-Jul-22 05:33N 49°14' W 123°15'5 5.2
2016-Jul-22 04:33N 49°12' W 123°07'7 7.3
2016-Jul-22 03:33N 49°12' W 122°56'1 1.0
2016-Jul-22 02:33N 49°11' W 122°57'5 5.4
2016-Jul-22 01:33N 49°13' W 122°50'2 2.4
2016-Jul-22 00:33N 49°14' W 122°46'0 0.0
2016-Jul-21 23:33N 49°14' W 122°46'2 1.9
2016-Jul-21 22:33N 49°13' W 122°49'1 0.5
2016-Jul-21 21:33N 49°13' W 122°49'0 0.0
2016-Jul-21 20:33N 49°13' W 122°49'0 0.5
2016-Jul-21 19:33N 49°13' W 122°50'0 0.4
2016-Jul-21 18:31N 49°13' W 122°49'0 0.2
2016-Jul-21 17:29N 49°13' W 122°50'3 2.3
2016-Jul-21 16:24N 49°14' W 122°46'4 5.2
2016-Jul-21 15:33N 49°13' W 122°53'13 4.1
2016-Jul-21 12:19N 49°13' W 123°13'7 8.6
2016-Jul-21 11:33N 49°15' W 123°23'10 9.5
2016-Jul-21 10:33N 49°14' W 123°37'10 9.5
2016-Jul-21 09:31N 49°12' W 123°52'3 3.3
2016-Jul-21 08:32N 49°09' W 123°53'6 5.7
2016-Jul-21 07:29N 49°13' W 123°45'8 8.0
2016-Jul-21 06:25N 49°10' W 123°33'8 8.3
2016-Jul-21 05:26N 49°07' W 123°22'13 7.0
2016-Jul-21 03:33N 49°09' W 123°02'7 6.6
2016-Jul-21 02:33N 49°13' W 122°54'4 3.7
2016-Jul-21 01:34N 49°13' W 122°48'1 1.3
2016-Jul-21 00:33N 49°13' W 122°50'3 3.5
2016-Jul-20 23:34N 49°12' W 122°55'3 2.9
2016-Jul-20 22:33N 49°09' W 122°58'5 4.9
2016-Jul-20 21:33N 49°07' W 123°05'4 4.3
2016-Jul-20 20:33N 49°07' W 123°11'4 3.8
2016-Jul-20 19:33N 49°07' W 123°17'3 3.1
2016-Jul-20 18:33N 49°05' W 123°21'5 5.1
2016-Jul-20 17:33N 49°03' W 123°28'  

Dump ship's entire track history